Terminal Aerodrome Forecast
Issued by NWS Amarillo, TX

Home | Current Version | Previous Version | Text Only | Print | Product List | Glossary On
Versions: 1 2 3 4 5 6 7 8 9 10 11 12 13 14 15 16 17 18 19 20 21
063
FTUS44 KAMA 162322
TAFGUY
TAF
KGUY 162322Z 1700/1724 32013KT P6SM SCT020 OVC070
      TEMPO 1700/1704 BKN020
     FM170800 31008KT P6SM SCT020 OVC060
     FM171300 26006KT P6SM SCT060 SCT200=

USA.gov is the U.S. government's official web portal to all federal, state and local government web resources and services.